Aérodrome :
LOGIN :

S'inscrire | Disclaimer

   EN    FR    IT 

 










Légende :    VFR   VFR Marginal   IFR   IFR Intensif   IFR Très Intensif
Visi : 
Plafond : 
>= 8 km
>= 3000ft
5 à 8 km
1000 à 3000 ft
1500m à 5 km
500 à 1000 ft
800 à 1500m
200 à 500 ft
< 800m
< 200 ft
Symboles :   Orages  Brouillard  Fortes neiges  Fortes précipitations  Vent > 20 kt
SIGMETs :   Divers  Orages  Givrage  Turbulence  Onde Orograph.  Cendres Volcan.






- Altitude de l'aérodrome : 235 ft
- Code IATA : BZG


EPBY - Bydgoszcz

DERNIER METAR :
  • 222000Z 11012KT 9999 OVC011 03/00 Q1018

METARs EXPIRÉS :
  • 221930Z 12011KT 9999 OVC012 03/00 Q1018
  • 221900Z 12012KT 090V150 9999 OVC013 03/01 Q1018
  • 221830Z 11011KT 9999 OVC012 03/01 Q1018
  • 221800Z 12012KT 090V160 9999 OVC012 03/01 Q1018
  • 221730Z 13015KT 9999 OVC013 04/01 Q1018

TAF AMD TAF EPBY
Valide du 22 à 18h jusqu'au 23 à 18h UTC


221830Z 2218/2318 12012KT 9999 BKN012
TEMPO 2222/2309 BKN007
PROB40
TEMPO 2310/2316 BKN015
TEMPO 2316/2318 BKN007



MET'MAP, la Météo Aéronautique d'un coup d'oeil ! - Copyright ORBIFLY Décembre 2007 - Disclaimer

ORBIFLY MET'MAP TEAM :

Programmation & Développement : Alexandra Zaïnal
Conception & Développement : Baudouin d'Aumeries
Co-Programmation & Développement : Marc-Olivier Méhu
Soutien technique & logistique : Manuel Goepfert

Contact : metmap@orbifly.com




SOURCES & CREDITS :

   NOAA